Time;durP1;ratioP1;P1;durP2;ratioP2;P2;SDS_P1;SDS_P2;PMS_P1;PMS_P2;Temp;Humidity;BMP_temperature;BMP_pressure;BME280_temperature;BME280_humidity;BME280_pressure;Samples;Min_cycle;Max_cycle;Signal;HPM_P1;HPM_P2
2023/05/19 00:01:31;;;;;;;;;;;;;;;13.13;45.93;101467.72;4937163;28;6999;-78
2023/05/19 00:04:02;;;;;;;;;;;;;;;13.08;46.72;101470.03;4991602;28;7298;-78
2023/05/19 00:06:31;;;;;;;;;;;;;;;13.03;46.64;101468.88;4979487;28;6975;-78
2023/05/19 00:09:01;;;;;;;;;;;;;;;12.96;46.85;101462.53;4964626;28;6919;-78
2023/05/19 00:11:27;;;;;;;;;;;;;;;12.87;46.13;101462.91;4975540;28;6800;-78
2023/05/19 00:13:55;;;;;;;;;;;;;;;12.77;46.96;101461.50;4968092;28;7181;-78
2023/05/19 00:16:23;;;;;;;;;;;;;;;12.66;46.49;101454.88;4957697;28;6856;-78
2023/05/19 00:18:50;;;;;;;;;;;;;;;12.55;46.64;101459.41;4989446;28;6824;-78
2023/05/19 00:21:16;;;;;;;;;;;;;;;12.43;47.34;101459.59;4950711;28;6856;-78
2023/05/19 00:23:42;;;;;;;;;;;;;;;12.38;47.40;101457.56;4952778;28;7319;-78
2023/05/19 00:26:09;;;;;;;;;;;;;;;12.32;47.56;101460.69;4954356;28;9773;-78
2023/05/19 00:28:35;;;;;;;;;;;;;;;12.25;47.47;101464.56;4987885;28;6815;-78
2023/05/19 00:31:05;;;;;;;;;;;;;;;12.18;47.75;101465.00;4967455;28;8204;-77
2023/05/19 00:33:32;;;;;;;;;;;;;;;12.11;47.65;101465.44;4988356;28;7364;-77
2023/05/19 00:36:01;;;;;;;;;;;;;;;12.03;47.95;101459.88;4923319;28;7429;-77
2023/05/19 00:38:29;;;;;;;;;;;;;;;11.96;48.09;101463.69;4974233;28;8022;-77
2023/05/19 00:40:55;;;;;;;;;;;;;;;11.89;48.05;101471.84;4945260;28;9484;-78
2023/05/19 00:43:21;;;;;;;;;;;;;;;11.79;48.25;101466.16;4954328;28;7221;-77
2023/05/19 00:45:46;;;;;;;;;;;;;;;11.71;48.20;101469.94;4962552;28;6792;-77
2023/05/19 00:48:12;;;;;;;;;;;;;;;11.65;48.75;101462.75;4994972;28;6772;-77
2023/05/19 00:50:39;;;;;;;;;;;;;;;11.59;48.71;101462.38;4961701;28;7275;-77
2023/05/19 00:53:05;;;;;;;;;;;;;;;11.53;48.80;101462.00;4962859;28;6804;-77
2023/05/19 00:55:34;;;;;;;;;;;;;;;11.47;49.30;101459.94;4959925;28;6851;-77
2023/05/19 00:58:00;;;;;;;;;;;;;;;11.44;49.31;101461.44;4946444;28;7284;-78
2023/05/19 01:00:25;;;;;;;;;;;;;;;11.39;48.92;101458.59;4954501;28;6816;-77
2023/05/19 01:02:52;;;;;;;;;;;;;;;11.33;49.02;101447.97;4984880;28;7082;-78
2023/05/19 01:05:18;;;;;;;;;;;;;;;11.28;49.69;101447.66;4963090;28;8490;-78
2023/05/19 01:07:45;;;;;;;;;;;;;;;11.25;49.43;101452.59;4965147;28;6947;-78
2023/05/19 01:10:11;;;;;;;;;;;;;;;11.20;50.03;101451.44;4948506;28;6824;-78
2023/05/19 01:12:39;;;;;;;;;;;;;;;11.14;49.94;101451.94;4945067;28;6772;-78
2023/05/19 01:15:06;;;;;;;;;;;;;;;11.10;49.94;101448.28;4951366;28;7281;-78
2023/05/19 01:17:59;;;;;;;;;;;;;;;11.07;50.16;101449.78;4967435;28;6982;-78
2023/05/19 01:20:45;;;;;;;;;;;;;;;11.02;50.40;101446.06;4960345;28;7131;-78
2023/05/19 01:23:43;;;;;;;;;;;;;;;10.95;50.70;101443.09;4990349;28;6812;-78
2023/05/19 01:26:39;;;;;;;;;;;;;;;10.91;50.58;101443.69;4963437;28;7055;-78
2023/05/19 01:29:56;;;;;;;;;;;;;;;10.88;50.58;101443.47;4994546;28;6861;-78
2023/05/19 01:32:24;;;;;;;;;;;;;;;10.87;50.75;101451.97;4966460;28;7210;-78
2023/05/19 01:34:51;;;;;;;;;;;;;;;10.87;51.22;101446.84;4983205;28;8588;-78
2023/05/19 01:37:18;;;;;;;;;;;;;;;10.88;51.12;101447.75;4973194;28;6891;-78
2023/05/19 01:39:45;;;;;;;;;;;;;;;10.87;51.03;101457.09;4967496;28;7044;-77
2023/05/19 01:42:13;;;;;;;;;;;;;;;10.82;51.43;101454.25;4983078;28;6786;-77
2023/05/19 01:44:39;;;;;;;;;;;;;;;10.81;51.35;101451.56;4958249;28;6864;-77
2023/05/19 01:47:05;;;;;;;;;;;;;;;10.79;51.42;101458.28;4960022;28;6960;-77
2023/05/19 01:49:30;;;;;;;;;;;;;;;10.77;51.41;101460.78;4971292;28;7212;-77
2023/05/19 01:52:46;;;;;;;;;;;;;;;10.76;51.35;101455.53;4963774;28;6852;-77
2023/05/19 01:55:11;;;;;;;;;;;;;;;10.72;51.91;101461.25;4962449;28;7183;-77
2023/05/19 01:58:15;;;;;;;;;;;;;;;10.69;51.75;101459.38;4949158;28;7478;-78
2023/05/19 02:00:58;;;;;;;;;;;;;;;10.66;52.03;101452.38;4970465;28;7230;-78
2023/05/19 02:03:41;;;;;;;;;;;;;;;10.64;52.08;101453.97;4960711;28;7059;-77
2023/05/19 02:06:36;;;;;;;;;;;;;;;10.63;51.92;101453.84;4978106;28;7019;-77
2023/05/19 02:09:42;;;;;;;;;;;;;;;10.60;52.35;101443.41;4995173;28;6807;-78
2023/05/19 02:12:31;;;;;;;;;;;;;;;10.54;52.34;101446.47;4962058;28;7150;-77
2023/05/19 02:15:24;;;;;;;;;;;;;;;10.52;52.08;101445.47;4991076;28;6872;-77
2023/05/19 02:17:53;;;;;;;;;;;;;;;10.49;52.40;101445.25;4956936;28;7280;-77
2023/05/19 02:20:20;;;;;;;;;;;;;;;10.46;52.04;101438.25;4968354;28;6880;-77
2023/05/19 02:22:47;;;;;;;;;;;;;;;10.46;52.16;101450.22;4957180;28;7364;-78
2023/05/19 02:25:13;;;;;;;;;;;;;;;10.42;52.43;101439.72;4952947;28;7199;-78
2023/05/19 02:27:40;;;;;;;;;;;;;;;10.40;52.61;101446.41;4948268;28;7038;-76
2023/05/19 02:30:08;;;;;;;;;;;;;;;10.37;52.60;101442.75;4960913;28;7248;-77
2023/05/19 02:32:35;;;;;;;;;;;;;;;10.32;52.07;101437.31;4972000;28;6994;-76
2023/05/19 02:35:01;;;;;;;;;;;;;;;10.31;52.64;101439.81;4954154;28;6812;-76
2023/05/19 02:37:28;;;;;;;;;;;;;;;10.29;52.74;101439.69;4976793;28;7274;-77
2023/05/19 02:39:54;;;;;;;;;;;;;;;10.26;52.59;101434.38;4964082;28;6868;-74
2023/05/19 02:42:20;;;;;;;;;;;;;;;10.25;52.66;101432.59;4990713;28;7461;-73
2023/05/19 02:44:46;;;;;;;;;;;;;;;10.24;53.34;101429.13;4991721;28;7088;-74
2023/05/19 02:47:12;;;;;;;;;;;;;;;10.23;52.65;101431.59;4963207;28;6771;-73
2023/05/19 02:49:38;;;;;;;;;;;;;;;10.21;52.90;101430.59;4952392;28;6848;-74
2023/05/19 02:52:05;;;;;;;;;;;;;;;10.18;53.26;101430.41;4953010;28;6973;-76
2023/05/19 02:54:33;;;;;;;;;;;;;;;10.16;52.99;101427.75;4953962;28;6799;-75
2023/05/19 02:56:58;;;;;;;;;;;;;;;10.13;53.54;101433.53;4957209;28;6812;-74
2023/05/19 02:59:24;;;;;;;;;;;;;;;10.10;53.48;101432.47;4990590;28;6978;-77
2023/05/19 03:02:00;;;;;;;;;;;;;;;10.07;53.13;101428.03;4946919;28;8506;-75
2023/05/19 03:04:26;;;;;;;;;;;;;;;10.04;53.74;101429.50;4946496;28;8324;-73
2023/05/19 03:06:53;;;;;;;;;;;;;;;10.02;53.11;101426.81;4968756;28;7000;-74
2023/05/19 03:09:19;;;;;;;;;;;;;;;10.01;53.81;101432.75;4990501;28;7028;-76
2023/05/19 03:11:45;;;;;;;;;;;;;;;10.00;53.84;101437.00;4979330;28;6958;-76
2023/05/19 03:14:12;;;;;;;;;;;;;;;10.00;53.67;101430.97;4975890;28;6815;-73
2023/05/19 03:16:39;;;;;;;;;;;;;;;10.00;53.61;101434.44;4986804;28;8790;-76
2023/05/19 03:19:05;;;;;;;;;;;;;;;10.02;53.73;101431.94;4989767;28;7553;-73
2023/05/19 03:21:33;;;;;;;;;;;;;;;10.04;54.35;101434.63;4955952;28;6965;-74
2023/05/19 03:23:59;;;;;;;;;;;;;;;10.06;53.63;101428.81;4955897;28;6800;-74
2023/05/19 03:26:25;;;;;;;;;;;;;;;10.08;53.90;101429.81;4955480;28;6891;-76
2023/05/19 03:28:51;;;;;;;;;;;;;;;10.10;54.29;101425.66;4964213;28;7234;-75
2023/05/19 03:31:17;;;;;;;;;;;;;;;10.13;54.02;101423.28;4974201;28;8746;-73
2023/05/19 03:33:43;;;;;;;;;;;;;;;10.18;54.99;101420.16;4960961;28;6792;-76
2023/05/19 03:36:08;;;;;;;;;;;;;;;10.24;54.17;101423.16;4928479;28;7273;-77
2023/05/19 03:38:34;;;;;;;;;;;;;;;10.31;54.43;101421.88;4956329;28;6772;-76
2023/05/19 03:41:00;;;;;;;;;;;;;;;10.34;54.98;101417.84;4967409;28;6811;-73
2023/05/19 03:43:25;;;;;;;;;;;;;;;10.39;54.78;101416.44;4982296;28;7582;-75
2023/05/19 03:45:52;;;;;;;;;;;;;;;10.44;54.03;101418.47;4958239;28;6788;-73
2023/05/19 03:48:17;;;;;;;;;;;;;;;10.47;54.52;101423.78;4969488;28;7164;-73
2023/05/19 03:50:43;;;;;;;;;;;;;;;10.52;54.22;101427.50;4954825;28;6962;-76
2023/05/19 03:53:09;;;;;;;;;;;;;;;10.58;54.50;101422.78;4949516;28;7815;-73
2023/05/19 03:55:36;;;;;;;;;;;;;;;10.63;54.88;101431.69;4939300;28;6961;-77
2023/05/19 03:58:02;;;;;;;;;;;;;;;10.70;54.13;101431.25;4967648;28;6820;-76
2023/05/19 04:00:27;;;;;;;;;;;;;;;10.75;54.79;101435.81;4987652;28;6800;-72
2023/05/19 04:02:53;;;;;;;;;;;;;;;10.79;54.72;101433.53;4979370;28;7001;-73
2023/05/19 04:05:19;;;;;;;;;;;;;;;10.85;54.91;101430.47;4959798;28;8064;-73
2023/05/19 04:07:45;;;;;;;;;;;;;;;10.90;54.42;101426.50;4976063;28;7435;-76
2023/05/19 04:10:11;;;;;;;;;;;;;;;10.96;54.33;101434.59;4956707;28;7457;-76
2023/05/19 04:12:37;;;;;;;;;;;;;;;11.02;54.45;101435.78;4959495;28;7055;-74
2023/05/19 04:15:04;;;;;;;;;;;;;;;11.07;54.54;101429.25;4970428;28;6949;-73
2023/05/19 04:17:30;;;;;;;;;;;;;;;11.13;54.25;101434.78;4970922;28;7117;-73
2023/05/19 04:19:56;;;;;;;;;;;;;;;11.20;54.56;101434.38;4977990;28;6780;-74
2023/05/19 04:22:22;;;;;;;;;;;;;;;11.35;55.14;101437.00;5003099;28;7282;-76
2023/05/19 04:24:50;;;;;;;;;;;;;;;11.53;55.58;101439.78;4953665;28;7003;-73
2023/05/19 04:27:17;;;;;;;;;;;;;;;11.75;55.49;101437.63;5003439;28;6955;-74
2023/05/19 04:29:42;;;;;;;;;;;;;;;11.98;55.39;101441.56;4992697;28;7199;-74
2023/05/19 04:32:09;;;;;;;;;;;;;;;12.23;55.74;101440.44;4969632;28;6850;-77
2023/05/19 04:34:39;;;;;;;;;;;;;;;12.52;56.23;101441.22;4974819;28;6816;-73
2023/05/19 04:37:06;;;;;;;;;;;;;;;12.81;55.51;101444.56;4961700;28;6833;-74
2023/05/19 04:39:32;;;;;;;;;;;;;;;13.09;54.72;101448.66;4999983;28;6974;-75
2023/05/19 04:41:58;;;;;;;;;;;;;;;13.37;54.66;101439.84;5000021;28;8554;-76
2023/05/19 04:44:24;;;;;;;;;;;;;;;13.65;55.13;101450.72;4954873;28;8437;-75
2023/05/19 04:46:53;;;;;;;;;;;;;;;13.94;54.59;101444.50;4989480;28;6784;-77
2023/05/19 04:49:19;;;;;;;;;;;;;;;14.25;54.03;101443.47;4958839;28;8521;-74
2023/05/19 04:51:48;;;;;;;;;;;;;;;14.56;52.99;101439.81;4958749;28;7091;-74
2023/05/19 04:54:14;;;;;;;;;;;;;;;14.86;52.88;101438.66;4975571;28;8856;-76
2023/05/19 04:56:40;;;;;;;;;;;;;;;15.13;52.41;101428.72;4954786;28;6999;-77
2023/05/19 04:59:17;;;;;;;;;;;;;;;15.44;51.92;101442.16;4958948;28;7331;-76
2023/05/19 05:01:42;;;;;;;;;;;;;;;15.73;50.99;101441.66;4960344;28;7186;-74
2023/05/19 05:04:08;;;;;;;;;;;;;;;16.01;50.61;101435.09;4963077;28;6816;-77
2023/05/19 05:06:37;;;;;;;;;;;;;;;16.29;51.07;101418.16;4973998;28;6787;-76
2023/05/19 05:09:03;;;;;;;;;;;;;;;16.58;50.00;101432.28;4993478;28;8519;-77
2023/05/19 05:11:30;;;;;;;;;;;;;;;16.83;49.12;101430.63;5001324;28;6852;-76
2023/05/19 05:13:56;;;;;;;;;;;;;;;17.04;48.39;101427.13;4985371;28;6812;-74
2023/05/19 05:16:23;;;;;;;;;;;;;;;17.25;47.83;101429.66;4952201;28;7150;-78
2023/05/19 05:18:49;;;;;;;;;;;;;;;17.40;47.55;101426.72;4967283;28;6809;-75
2023/05/19 05:21:15;;;;;;;;;;;;;;;17.55;46.68;101420.34;4978502;28;6816;-74
2023/05/19 05:23:41;;;;;;;;;;;;;;;17.66;46.02;101431.06;4966338;28;6780;-74
2023/05/19 05:26:18;;;;;;;;;;;;;;;17.74;46.34;101420.16;4987422;28;6851;-74
2023/05/19 05:28:44;;;;;;;;;;;;;;;17.85;45.96;101422.25;4961185;28;6977;-78
2023/05/19 05:31:11;;;;;;;;;;;;;;;17.95;45.46;101420.84;4969799;28;7361;-75
2023/05/19 05:33:37;;;;;;;;;;;;;;;18.04;45.25;101418.59;4972383;28;7137;-74
2023/05/19 05:36:03;;;;;;;;;;;;;;;18.10;44.78;101415.31;4970883;28;7122;-75
2023/05/19 05:38:30;;;;;;;;;;;;;;;18.10;44.30;101416.22;4983085;28;8821;-77
2023/05/19 05:40:55;;;;;;;;;;;;;;;18.00;43.71;101414.97;4990705;28;6979;-77
2023/05/19 05:43:21;;;;;;;;;;;;;;;17.89;43.38;101421.50;4970087;28;7196;-74
2023/05/19 05:45:47;;;;;;;;;;;;;;;17.74;43.25;101422.75;4963876;28;6810;-74
2023/05/19 05:48:13;;;;;;;;;;;;;;;17.54;42.70;101419.47;4975468;28;7152;-74
2023/05/19 05:50:41;;;;;;;;;;;;;;;17.30;42.85;101415.16;4965501;28;6768;-75
2023/05/19 05:53:14;;;;;;;;;;;;;;;17.04;42.95;101415.06;4987100;28;7145;-76
2023/05/19 05:55:40;;;;;;;;;;;;;;;16.79;43.48;101415.81;4974060;28;6816;-76
2023/05/19 05:58:10;;;;;;;;;;;;;;;16.60;43.80;101416.78;4963729;28;7193;-77
2023/05/19 06:00:37;;;;;;;;;;;;;;;16.41;43.57;101410.88;4968849;28;6995;-75
2023/05/19 06:03:03;;;;;;;;;;;;;;;16.24;43.94;101403.34;4946644;28;8992;-76
2023/05/19 06:05:28;;;;;;;;;;;;;;;16.10;44.06;101407.06;4976311;28;6968;-76
2023/05/19 06:07:54;;;;;;;;;;;;;;;15.98;44.62;101411.72;5001959;28;7841;-74
2023/05/19 06:10:20;;;;;;;;;;;;;;;15.84;44.98;101409.41;4974103;28;7446;-74
2023/05/19 06:12:46;;;;;;;;;;;;;;;15.76;44.95;101416.81;4959324;28;8100;-77
2023/05/19 06:15:12;;;;;;;;;;;;;;;15.72;45.79;101420.09;4960531;28;6780;-74
2023/05/19 06:17:38;;;;;;;;;;;;;;;15.71;45.64;101417.44;4983857;28;6949;-74
2023/05/19 06:20:05;;;;;;;;;;;;;;;15.69;46.02;101423.44;4988232;28;6966;-77
2023/05/19 06:22:31;;;;;;;;;;;;;;;15.71;46.36;101417.44;4958761;28;9417;-74
2023/05/19 06:24:57;;;;;;;;;;;;;;;15.74;46.67;101425.31;4986436;28;6772;-74
2023/05/19 06:27:22;;;;;;;;;;;;;;;15.77;46.63;101423.75;4966584;28;6779;-77
2023/05/19 06:29:48;;;;;;;;;;;;;;;15.80;46.88;101421.31;4954433;28;7494;-74
2023/05/19 06:32:14;;;;;;;;;;;;;;;15.85;47.09;101431.88;4981256;28;6952;-75
2023/05/19 06:34:39;;;;;;;;;;;;;;;15.90;47.11;101424.31;4996941;28;6780;-76
2023/05/19 06:37:05;;;;;;;;;;;;;;;15.93;46.87;101427.94;4975630;28;6930;-77
2023/05/19 06:39:31;;;;;;;;;;;;;;;15.95;46.96;101423.72;4978654;28;6775;-75
2023/05/19 06:41:58;;;;;;;;;;;;;;;15.95;46.66;101428.88;4969211;28;7178;-78
2023/05/19 06:44:24;;;;;;;;;;;;;;;15.92;46.89;101423.56;4991952;28;8474;-78
2023/05/19 06:46:50;;;;;;;;;;;;;;;15.90;47.21;101420.03;4956908;28;6978;-77
2023/05/19 06:49:16;;;;;;;;;;;;;;;15.89;47.33;101431.16;4970887;28;8305;-80
2023/05/19 06:51:41;;;;;;;;;;;;;;;15.85;46.73;101424.09;4962638;28;6776;-80
2023/05/19 06:54:09;;;;;;;;;;;;;;;15.87;47.02;101427.63;4998271;28;6775;-78
2023/05/19 06:56:35;;;;;;;;;;;;;;;15.88;47.49;101426.81;4961123;28;7530;-80
2023/05/19 06:59:01;;;;;;;;;;;;;;;15.93;47.67;101424.47;4969129;28;6784;-77
2023/05/19 07:01:27;;;;;;;;;;;;;;;16.02;47.61;101429.13;4964335;28;7082;-78
2023/05/19 07:03:52;;;;;;;;;;;;;;;16.20;47.91;101429.03;4969999;28;7094;-77
2023/05/19 07:06:18;;;;;;;;;;;;;;;16.48;48.28;101423.25;4984655;28;6807;-81
2023/05/19 07:08:44;;;;;;;;;;;;;;;16.82;48.13;101434.06;4968808;28;7004;-81
2023/05/19 07:11:11;;;;;;;;;;;;;;;17.14;48.02;101433.56;4953738;28;7203;-81
2023/05/19 07:13:36;;;;;;;;;;;;;;;17.44;47.59;101433.81;4986269;28;8621;-76
2023/05/19 07:16:03;;;;;;;;;;;;;;;17.73;47.32;101435.66;4962625;28;7455;-78
2023/05/19 07:18:30;;;;;;;;;;;;;;;17.98;46.56;101423.56;4985145;28;6788;-78
2023/05/19 07:20:57;;;;;;;;;;;;;;;18.20;46.60;101416.50;4972031;28;6843;-82
2023/05/19 07:23:22;;;;;;;;;;;;;;;18.39;46.35;101423.16;4969240;28;6981;-81
2023/05/19 07:25:48;;;;;;;;;;;;;;;18.59;45.87;101421.22;4997834;28;6804;-79
2023/05/19 07:28:14;;;;;;;;;;;;;;;18.80;45.62;101418.41;4979536;28;8468;-81
2023/05/19 07:30:40;;;;;;;;;;;;;;;19.06;44.96;101417.44;4956819;28;6858;-82
2023/05/19 07:33:05;;;;;;;;;;;;;;;19.27;44.79;101417.19;4967420;28;6768;-77
2023/05/19 07:35:31;;;;;;;;;;;;;;;19.47;43.95;101415.13;4989282;28;7000;-82
2023/05/19 07:37:57;;;;;;;;;;;;;;;19.62;43.12;101412.06;5005696;28;6775;-81
2023/05/19 07:40:22;;;;;;;;;;;;;;;19.74;42.77;101408.91;5004103;28;6789;-81
2023/05/19 07:42:49;;;;;;;;;;;;;;;19.84;42.47;101404.81;4972292;28;7734;-81
2023/05/19 07:45:14;;;;;;;;;;;;;;;19.99;41.85;101404.38;4995927;28;7083;-81
2023/05/19 07:47:40;;;;;;;;;;;;;;;20.16;41.46;101410.00;4964802;28;6844;-76
2023/05/19 07:50:06;;;;;;;;;;;;;;;20.33;41.86;101410.41;4967936;28;7868;-79
2023/05/19 07:52:32;;;;;;;;;;;;;;;20.51;41.35;101411.69;4979130;28;8589;-77
2023/05/19 07:54:58;;;;;;;;;;;;;;;20.67;40.65;101405.09;4968434;28;9430;-81
2023/05/19 07:57:24;;;;;;;;;;;;;;;20.82;39.86;101417.59;4967665;28;6791;-78
2023/05/19 07:59:49;;;;;;;;;;;;;;;20.83;39.15;101414.16;4993633;28;8580;-81
2023/05/19 08:02:15;;;;;;;;;;;;;;;20.76;39.15;101407.91;4956466;28;6964;-77
2023/05/19 08:04:41;;;;;;;;;;;;;;;20.75;38.90;101397.44;4974510;28;7039;-79
2023/05/19 08:07:07;;;;;;;;;;;;;;;20.76;38.84;101404.41;4974161;28;7379;-81
2023/05/19 08:09:32;;;;;;;;;;;;;;;20.77;38.56;101396.63;4956587;28;6954;-79
2023/05/19 08:12:00;;;;;;;;;;;;;;;20.84;38.53;101397.66;4965386;28;7045;-79
2023/05/19 08:14:26;;;;;;;;;;;;;;;20.92;38.60;101401.31;4964930;28;7112;-81
2023/05/19 08:16:51;;;;;;;;;;;;;;;20.99;38.26;101404.91;4980461;28;7253;-79
2023/05/19 08:19:17;;;;;;;;;;;;;;;21.07;38.19;101398.16;4954937;28;6941;-81
2023/05/19 08:21:43;;;;;;;;;;;;;;;21.22;37.94;101399.31;4981655;28;6914;-78
2023/05/19 08:24:09;;;;;;;;;;;;;;;21.40;37.46;101393.56;4983172;28;7340;-81
2023/05/19 08:26:35;;;;;;;;;;;;;;;21.58;37.04;101394.78;4990997;28;6958;-81
2023/05/19 08:29:00;;;;;;;;;;;;;;;21.78;37.07;101396.03;4964615;28;7135;-80
2023/05/19 08:31:26;;;;;;;;;;;;;;;22.10;36.72;101394.81;4965809;28;6907;-80
2023/05/19 08:33:52;;;;;;;;;;;;;;;22.41;36.04;101399.66;4968048;28;6823;-77
2023/05/19 08:36:18;;;;;;;;;;;;;;;22.76;35.68;101396.66;4978459;28;6813;-81
2023/05/19 08:38:44;;;;;;;;;;;;;;;23.12;34.63;101384.91;4988977;28;7363;-76
2023/05/19 08:41:10;;;;;;;;;;;;;;;23.48;34.73;101387.06;4976862;28;7151;-79
2023/05/19 08:43:36;;;;;;;;;;;;;;;23.88;33.62;101376.09;4978887;28;6951;-78
2023/05/19 08:46:03;;;;;;;;;;;;;;;24.25;33.19;101381.63;4956463;28;8390;-80
2023/05/19 08:48:32;;;;;;;;;;;;;;;24.57;32.50;101369.59;4997672;28;7420;-77
2023/05/19 08:51:26;;;;;;;;;;;;;;;24.82;32.39;101366.25;4945425;28;6989;-76
2023/05/19 08:53:56;;;;;;;;;;;;;;;24.93;32.28;101373.28;4970101;28;6966;-81
2023/05/19 08:56:23;;;;;;;;;;;;;;;25.06;32.15;101359.34;4975788;28;8824;-77
2023/05/19 08:58:51;;;;;;;;;;;;;;;25.22;31.33;101359.38;4972706;28;6791;-78
2023/05/19 09:01:18;;;;;;;;;;;;;;;25.24;31.00;101358.50;4964893;28;6804;-77
2023/05/19 09:03:46;;;;;;;;;;;;;;;25.30;30.58;101357.66;4995381;28;6800;-79
2023/05/19 09:06:11;;;;;;;;;;;;;;;25.37;30.57;101353.28;4968430;28;6872;-76
2023/05/19 09:08:39;;;;;;;;;;;;;;;25.46;30.40;101353.31;4960529;28;7887;-76
2023/05/19 09:11:05;;;;;;;;;;;;;;;25.61;30.49;101347.22;5002025;28;6984;-76
2023/05/19 09:13:30;;;;;;;;;;;;;;;25.75;30.10;101348.97;4962708;28;8562;-76
2023/05/19 09:15:57;;;;;;;;;;;;;;;26.06;30.56;101344.56;4967254;28;7197;-76
2023/05/19 09:18:26;;;;;;;;;;;;;;;26.53;30.01;101335.72;4966910;28;6995;-76
2023/05/19 09:21:01;;;;;;;;;;;;;;;27.06;29.50;101328.47;4954136;28;7057;-76
2023/05/19 09:23:32;;;;;;;;;;;;;;;27.55;28.85;101332.56;4965218;28;6820;-76
2023/05/19 09:26:05;;;;;;;;;;;;;;;28.04;29.00;101334.72;4969238;28;8048;-76
2023/05/19 09:28:34;;;;;;;;;;;;;;;28.41;28.45;101329.09;4963221;28;7132;-76
2023/05/19 09:31:08;;;;;;;;;;;;;;;28.55;27.24;101332.44;4967851;28;7262;-75
2023/05/19 09:33:41;;;;;;;;;;;;;;;28.64;26.76;101326.16;4954700;28;7925;-75
2023/05/19 09:36:07;;;;;;;;;;;;;;;28.68;26.59;101319.97;4967559;28;7291;-76
2023/05/19 09:38:35;;;;;;;;;;;;;;;28.66;26.09;101319.09;4988657;28;6871;-75
2023/05/19 09:41:01;;;;;;;;;;;;;;;28.59;25.85;101311.31;4969274;28;6836;-75
2023/05/19 09:43:33;;;;;;;;;;;;;;;28.48;26.36;101309.69;5000707;28;6788;-75
2023/05/19 09:46:08;;;;;;;;;;;;;;;28.46;26.67;101310.56;4949776;28;6978;-76
2023/05/19 09:48:35;;;;;;;;;;;;;;;28.44;26.37;101305.31;4952851;28;7269;-76
2023/05/19 09:51:02;;;;;;;;;;;;;;;28.59;26.26;101311.31;4953927;28;7031;-75
2023/05/19 09:53:30;;;;;;;;;;;;;;;28.98;26.14;101308.19;4942678;28;7000;-76
2023/05/19 09:55:56;;;;;;;;;;;;;;;29.33;26.63;101302.34;4982382;28;6803;-75
2023/05/19 09:58:23;;;;;;;;;;;;;;;29.73;25.87;101303.44;4975790;28;7743;-76
2023/05/19 10:00:56;;;;;;;;;;;;;;;30.02;25.97;101296.75;4962617;28;6880;-76
2023/05/19 10:03:22;;;;;;;;;;;;;;;30.37;25.81;101304.03;4974272;28;7076;-76
2023/05/19 10:05:50;;;;;;;;;;;;;;;30.59;25.14;101305.31;4968333;28;7022;-76
2023/05/19 10:08:16;;;;;;;;;;;;;;;30.76;24.60;101298.81;4982848;28;7266;-76
2023/05/19 10:10:45;;;;;;;;;;;;;;;30.89;24.56;101297.63;4953424;28;7014;-76
2023/05/19 10:13:12;;;;;;;;;;;;;;;30.90;23.96;101303.78;4960694;28;6815;-75
2023/05/19 10:15:41;;;;;;;;;;;;;;;30.71;23.95;101304.22;4997457;28;7215;-76
2023/05/19 10:18:09;;;;;;;;;;;;;;;30.65;23.94;101303.47;4964435;28;6967;-76
2023/05/19 10:20:36;;;;;;;;;;;;;;;30.83;24.16;101294.25;4967969;28;7248;-76
2023/05/19 10:23:02;;;;;;;;;;;;;;;31.08;23.52;101291.88;4964019;28;6871;-75
2023/05/19 10:25:32;;;;;;;;;;;;;;;31.24;23.21;101287.16;4993561;28;6828;-75
2023/05/19 10:28:08;;;;;;;;;;;;;;;31.45;23.00;101288.38;4973933;28;7912;-76
2023/05/19 10:30:41;;;;;;;;;;;;;;;31.46;23.16;101289.25;4976312;28;7167;-76
2023/05/19 10:33:14;;;;;;;;;;;;;;;31.36;22.79;101285.09;4963647;28;6815;-76
2023/05/19 10:36:10;;;;;;;;;;;;;;;31.13;22.99;101283.84;4992266;28;7009;-76
2023/05/19 10:39:11;;;;;;;;;;;;;;;30.93;22.86;101284.34;4965983;28;7179;-76
2023/05/19 10:42:14;;;;;;;;;;;;;;;30.70;22.14;101280.44;4952000;28;7478;-76
2023/05/19 10:44:59;;;;;;;;;;;;;;;30.61;23.13;101285.00;4967408;28;7173;-76
2023/05/19 10:47:25;;;;;;;;;;;;;;;30.82;22.84;101276.63;4972700;28;6954;-75
2023/05/19 10:49:52;;;;;;;;;;;;;;;31.26;22.90;101273.84;4960822;28;6843;-75
2023/05/19 10:52:25;;;;;;;;;;;;;;;31.83;22.66;101276.81;4977817;28;8741;-76
2023/05/19 10:54:53;;;;;;;;;;;;;;;32.12;21.76;101277.78;4982011;28;7153;-75
2023/05/19 10:57:26;;;;;;;;;;;;;;;31.94;21.42;101288.00;4980980;28;7264;-76
2023/05/19 10:59:54;;;;;;;;;;;;;;;31.69;21.63;101277.16;4974008;28;7363;-76
2023/05/19 11:02:41;;;;;;;;;;;;;;;31.61;21.97;101269.44;5005666;28;6799;-75
2023/05/19 11:05:17;;;;;;;;;;;;;;;31.61;21.58;101268.56;4965026;28;6969;-75
2023/05/19 11:07:53;;;;;;;;;;;;;;;31.77;21.53;101259.28;4987937;28;7028;-76
2023/05/19 11:10:23;;;;;;;;;;;;;;;31.88;21.76;101272.28;5005580;28;6796;-74
2023/05/19 11:12:49;;;;;;;;;;;;;;;31.84;21.46;101262.66;4987939;28;8048;-74
2023/05/19 11:15:15;;;;;;;;;;;;;;;32.09;21.14;101259.31;4981732;28;7909;-74
2023/05/19 11:17:47;;;;;;;;;;;;;;;32.33;20.84;101257.72;4972044;28;6991;-74
2023/05/19 11:20:33;;;;;;;;;;;;;;;32.22;20.86;101266.00;5000931;28;6884;-75
2023/05/19 11:23:14;;;;;;;;;;;;;;;32.18;20.82;101258.19;4970482;28;6875;-74
2023/05/19 11:25:46;;;;;;;;;;;;;;;32.29;20.50;101256.06;4978355;28;7424;-74
2023/05/19 11:28:18;;;;;;;;;;;;;;;32.33;20.73;101254.19;4973564;28;7039;-73
2023/05/19 11:30:49;;;;;;;;;;;;;;;32.56;20.51;101248.22;4973303;28;7390;-73
2023/05/19 11:33:18;;;;;;;;;;;;;;;32.87;20.20;101251.69;4973643;28;7762;-74
2023/05/19 11:35:49;;;;;;;;;;;;;;;32.89;19.95;101244.53;5004355;28;6804;-73
2023/05/19 11:38:17;;;;;;;;;;;;;;;32.62;19.92;101252.47;4956908;28;6999;-73
2023/05/19 11:40:43;;;;;;;;;;;;;;;32.21;19.74;101250.13;4988455;28;6996;-74
2023/05/19 11:43:09;;;;;;;;;;;;;;;31.57;19.79;101247.44;5005327;28;6993;-74
2023/05/19 11:45:35;;;;;;;;;;;;;;;31.27;20.45;101252.66;5004975;28;6832;-73
2023/05/19 11:48:04;;;;;;;;;;;;;;;31.00;20.94;101244.44;4974724;28;6788;-73
2023/05/19 11:50:32;;;;;;;;;;;;;;;31.29;20.59;101242.00;4970027;28;7302;-73
2023/05/19 11:53:00;;;;;;;;;;;;;;;31.83;20.77;101239.72;4975860;28;6780;-74
2023/05/19 11:55:25;;;;;;;;;;;;;;;32.38;20.11;101234.59;4983166;28;7071;-73
2023/05/19 11:57:56;;;;;;;;;;;;;;;32.37;20.04;101229.38;4977432;28;6811;-73
2023/05/19 12:00:22;;;;;;;;;;;;;;;31.76;20.39;101238.13;4973330;28;7106;-73
2023/05/19 12:02:47;;;;;;;;;;;;;;;31.40;20.60;101234.66;4970588;28;9387;-73
2023/05/19 12:05:46;;;;;;;;;;;;;;;31.65;20.71;101227.84;4998945;28;7272;-73
2023/05/19 12:08:12;;;;;;;;;;;;;;;32.12;20.32;101219.47;4980909;28;7193;-73
2023/05/19 12:10:39;;;;;;;;;;;;;;;32.50;20.16;101209.50;4973711;28;7300;-74
2023/05/19 12:13:07;;;;;;;;;;;;;;;32.87;19.96;101211.88;4977734;28;7062;-75
2023/05/19 12:15:33;;;;;;;;;;;;;;;33.16;19.34;101208.25;4989341;28;7230;-76
2023/05/19 12:18:01;;;;;;;;;;;;;;;33.09;19.39;101209.41;4973321;28;6807;-75
2023/05/19 12:20:31;;;;;;;;;;;;;;;33.00;19.68;101215.88;5003206;28;7035;-75
2023/05/19 12:22:58;;;;;;;;;;;;;;;33.05;19.60;101211.31;4964091;28;7315;-74
2023/05/19 12:25:24;;;;;;;;;;;;;;;33.29;19.23;101207.84;4976032;28;6777;-73
2023/05/19 12:27:51;;;;;;;;;;;;;;;33.47;19.17;101211.66;4974907;28;6895;-73
2023/05/19 12:30:18;;;;;;;;;;;;;;;33.65;19.01;101205.69;4982515;28;6995;-73
2023/05/19 12:32:45;;;;;;;;;;;;;;;33.85;18.67;101208.53;4970912;28;6800;-73
2023/05/19 12:35:14;;;;;;;;;;;;;;;33.86;18.51;101195.19;4971798;28;6808;-73
2023/05/19 12:37:41;;;;;;;;;;;;;;;33.86;18.60;101184.56;4982392;28;6985;-73
2023/05/19 12:40:08;;;;;;;;;;;;;;;33.91;18.46;101193.22;4997981;28;7076;-73
2023/05/19 12:42:34;;;;;;;;;;;;;;;33.93;18.46;101193.16;4972853;28;6991;-74
2023/05/19 12:45:03;;;;;;;;;;;;;;;33.94;18.29;101193.09;4972475;28;6776;-73
2023/05/19 12:47:34;;;;;;;;;;;;;;;33.77;18.31;101190.22;4980473;28;6880;-73
2023/05/19 12:50:07;;;;;;;;;;;;;;;33.48;18.52;101192.16;4959620;28;6982;-73
2023/05/19 12:52:41;;;;;;;;;;;;;;;33.15;18.45;101192.41;4971797;28;7281;-73
2023/05/19 12:55:10;;;;;;;;;;;;;;;32.63;18.82;101179.91;4968438;28;6976;-73
2023/05/19 12:57:41;;;;;;;;;;;;;;;32.17;19.35;101193.69;4979568;28;6971;-73